地図

経路データ

SID SEASON NUMBER BASIN SUBBASIN NAME ISO_TIME NATURE LAT LON WMO_WIND WMO_PRES WMO_AGENCY TRACK_TYPE DIST2LAND LANDFALL IFLAG USA_AGENCY USA_ATCF_ID USA_LAT USA_LON USA_RECORD USA_STATUS USA_WIND USA_PRES USA_SSHS USA_R34_NE USA_R34_SE USA_R34_SW USA_R34_NW USA_R50_NE USA_R50_SE USA_R50_SW USA_R50_NW USA_R64_NE USA_R64_SE USA_R64_SW USA_R64_NW USA_POCI USA_ROCI USA_RMW USA_EYE TOKYO_LAT TOKYO_LON TOKYO_GRADE TOKYO_WIND TOKYO_PRES TOKYO_R50_DIR TOKYO_R50_LONG TOKYO_R50_SHORT TOKYO_R30_DIR TOKYO_R30_LONG TOKYO_R30_SHORT TOKYO_LAND CMA_LAT CMA_LON CMA_CAT CMA_WIND CMA_PRES HKO_LAT HKO_LON HKO_CAT HKO_WIND HKO_PRES NEWDELHI_LAT NEWDELHI_LON NEWDELHI_GRADE NEWDELHI_WIND NEWDELHI_PRES NEWDELHI_CI NEWDELHI_DP NEWDELHI_POCI REUNION_LAT REUNION_LON REUNION_TYPE REUNION_WIND REUNION_PRES REUNION_TNUM REUNION_CI REUNION_RMW REUNION_R34_NE REUNION_R34_SE REUNION_R34_SW REUNION_R34_NW REUNION_R50_NE REUNION_R50_SE REUNION_R50_SW REUNION_R50_NW REUNION_R64_NE REUNION_R64_SE REUNION_R64_SW REUNION_R64_NW BOM_LAT BOM_LON BOM_TYPE BOM_WIND BOM_PRES BOM_TNUM BOM_CI BOM_RMW BOM_R34_NE BOM_R34_SE BOM_R34_SW BOM_R34_NW BOM_R50_NE BOM_R50_SE BOM_R50_SW BOM_R50_NW BOM_R64_NE BOM_R64_SE BOM_R64_SW BOM_R64_NW BOM_ROCI BOM_POCI BOM_EYE BOM_POS_METHOD BOM_PRES_METHOD NADI_LAT NADI_LON NADI_CAT NADI_WIND NADI_PRES WELLINGTON_LAT WELLINGTON_LON WELLINGTON_WIND WELLINGTON_PRES DS824_LAT DS824_LON DS824_STAGE DS824_WIND DS824_PRES TD9636_LAT TD9636_LON TD9636_STAGE TD9636_WIND TD9636_PRES TD9635_LAT TD9635_LON TD9635_WIND TD9635_PRES TD9635_ROCI NEUMANN_LAT NEUMANN_LON NEUMANN_CLASS NEUMANN_WIND NEUMANN_PRES MLC_LAT MLC_LON MLC_CLASS MLC_WIND MLC_PRES USA_GUST BOM_GUST BOM_GUST_PER REUNION_GUST REUNION_GUST_PER USA_SEAHGT USA_SEARAD_NE USA_SEARAD_SE USA_SEARAD_SW USA_SEARAD_NW STORM_SPEED STORM_DIR
2022009S18174 2022 3 SP MM CODY 2022-01-08 18:00:00 NR -18.3000 174.200 PROVISIONAL 318 308 O_____________ tcvightals SP052022 -18.3000 174.200 29 1000 -1 1005 200 40 3 71
2022009S18174 2022 3 SP MM CODY 2022-01-08 21:00:00 NR -18.2569 174.333 PROVISIONAL 308 266 P_____________ SP052022 -18.2471 174.425 29 1000 -1 1005 200 40 5 90
2022009S18174 2022 3 SP MM CODY 2022-01-09 00:00:00 NR -18.3000 174.700 PROVISIONAL 266 208 O_____________ tcvitals SP052022 -18.3000 174.700 29 1000 -1 1005 200 40 10 106
2022009S18174 2022 3 SP MM CODY 2022-01-09 03:00:00 NR -18.5147 175.307 PROVISIONAL 208 167 P_____________ SP052022 -18.5239 175.052 -1 1004 190 42 12 115
2022009S18174 2022 3 SP MM CODY 2022-01-09 06:00:00 NR -18.8091 175.865 PROVISIONAL 163 161 O_____________ tcvitals SP052022 -18.8212 175.419 -1 1003 180 45 11 126
2022009S18174 2022 3 SP MM CODY 2022-01-09 09:00:00 NR -19.1402 176.228 PROVISIONAL 161 161 P_____________ SP052022 -19.0732 175.745 -1 1003 180 35 9 137
2022009S18174 2022 3 SP MM CODY 2022-01-09 12:00:00 NR -19.4562 176.507 PROVISIONAL 177 173 O_____________ tcvitals SP052022 -19.3123 176.013 -1 60 55 30 1004 180 25 7 143
2022009S18174 2022 3 SP MM CODY 2022-01-09 15:00:00 NR -19.6961 176.672 PROVISIONAL 189 189 P_____________ SP052022 -19.5400 176.230 -1 65 62 25 1004 180 19 5 155
2022009S18174 2022 3 SP MM CODY 2022-01-09 18:00:00 NR -19.8916 176.722 PROVISIONAL 211 211 O_____________ tcvitals SP052022 -19.7471 176.351 -1 70 70 20 20 1004 180 14 3 195
2022009S18174 2022 3 SP MM CODY 2022-01-09 21:00:00 NR -20.0203 176.578 PROVISIONAL 224 224 P_____________ SP052022 -19.9411 176.388 -1 72 72 27 27 1004 180 17 4 242
2022009S18174 2022 3 SP MM CODY 2022-01-10 00:00:00 NR -20.1000 176.300 PROVISIONAL 247 247 O_____________ tcvitals SP052022 -20.1000 176.300 39 997 0 75 75 35 35 1004 180 20 5 252
2022009S18174 2022 3 SP MM CODY 2022-01-10 03:00:00 NR -20.1849 176.027 PROVISIONAL 271 271 P_____________ SP052022 -20.2041 176.076 39 995 0 87 87 50 52 1003 190 20 5 247
2022009S18174 2022 3 SP MM CODY 2022-01-10 06:00:00 NR -20.3000 175.800 PROVISIONAL 292 292 O_____________ tcvightals SP052022 -20.3000 175.800 39 993 0 100 100 65 70 1002 200 20 4 233
2022009S18174 2022 3 SP MM CODY 2022-01-10 09:00:00 NR -20.4496 175.652 PROVISIONAL 307 307 P_____________ SP052022 -20.4496 175.652 45 989 0 145 142 107 82 1002 200 20 5 231
2022009S18174 2022 3 SP MM CODY 2022-01-10 12:00:00 NR -20.6000 175.400 PROVISIONAL 343 343 O_____________ tcvightals SP052022 -20.6000 175.400 51 985 0 190 185 150 95 1002 200 20 8 252
2022009S18174 2022 3 SP MM CODY 2022-01-10 15:00:00 NR -20.7081 174.823 PROVISIONAL 391 391 P_____________ SP052022 -20.7081 174.823 45 988 0 150 145 120 90 1002 200 32 11 260
2022009S18174 2022 3 SP MM CODY 2022-01-10 18:00:00 NR -20.8000 174.200 PROVISIONAL 443 443 O_____________ tcvightals SP052022 -20.8000 174.200 39 991 0 110 105 90 85 1002 200 45 10 258
2022009S18174 2022 3 SP MM CODY 2022-01-10 21:00:00 NR -20.9223 173.775 PROVISIONAL 481 481 P_____________ SP052022 -20.9223 173.775 42 990 0 102 127 110 72 1002 205 40 7 253
2022009S18174 2022 3 SP MM CODY 2022-01-11 00:00:00 NR -21.0000 173.500 PROVISIONAL 512 512 O_____________ tcvightals SP052022 -21.0000 173.500 45 990 0 95 150 130 60 1002 210 35 4 267
2022009S18174 2022 3 SP MM CODY 2022-01-11 03:00:00 NR -20.9424 173.340 PROVISIONAL 521 521 P_____________ SP052022 -20.9424 173.340 45 989 0 92 132 100 65 1002 215 37 2 299
2022009S18174 2022 3 SP MM CODY 2022-01-11 06:00:00 NR -20.9000 173.300 PROVISIONAL 521 521 O_____________ tcvightals SP052022 -20.9000 173.300 45 989 0 90 115 70 70 1003 220 40 1 190
2022009S18174 2022 3 SP MM CODY 2022-01-11 09:00:00 NR -20.9975 173.313 PROVISIONAL 528 527 P_____________ SP052022 -20.9975 173.313 45 992 0 77 115 87 62 1004 235 40 3 163
2022009S18174 2022 3 SP MM CODY 2022-01-11 12:00:00 NR -21.2000 173.400 PROVISIONAL 535 535 O_____________ tcvightals SP052022 -21.2000 173.400 45 995 0 65 115 105 55 1006 250 40 5 155
2022009S18174 2022 3 SP MM CODY 2022-01-11 15:00:00 NR -21.4475 173.542 PROVISIONAL 542 542 P_____________ SP052022 -21.4475 173.542 45 992 0 72 107 97 47 1004 280 50 7 155
2022009S18174 2022 3 SP MM CODY 2022-01-11 18:00:00 NR -21.8000 173.700 PROVISIONAL 559 559 O_____________ tcvightals SP052022 -21.8000 173.700 45 990 0 80 100 90 40 1003 310 60 9 163
2022009S18174 2022 3 SP MM CODY 2022-01-11 21:00:00 NR -22.3000 173.815 PROVISIONAL 594 594 P_____________ SP052022 -22.3000 173.815 48 989 0 82 105 95 50 1003 305 40 10 169
2022009S18174 2022 3 SP MM CODY 2022-01-12 00:00:00 NR -22.8000 173.900 PROVISIONAL 633 633 O_____________ tcvightals SP052022 -22.8000 173.900 51 989 0 85 110 100 60 1003 300 20 8 175
2022009S18174 2022 3 SP MM CODY 2022-01-12 03:00:00 NR -23.0847 173.891 PROVISIONAL 661 661 P_____________ SP052022 -23.0847 173.891 51 988 0 95 107 92 60 1003 297 20 6 172
2022009S18174 2022 3 SP MM CODY 2022-01-12 06:00:00 NR -23.4000 174.000 PROVISIONAL 684 684 O_____________ tcvightals SP052022 -23.4000 174.000 51 988 0 105 105 85 60 1003 295 20 11 150
2022009S18174 2022 3 SP MM CODY 2022-01-12 09:00:00 NR -24.0232 174.491 PROVISIONAL 720 720 P_____________ SP052022 -24.0232 174.491 51 988 0 102 122 130 65 1004 305 20 15 143
2022009S18174 2022 3 SP MM CODY 2022-01-12 12:00:00 NR -24.6000 175.000 PROVISIONAL 764 764 O_____________ tcvightals SP052022 -24.6000 175.000 51 989 0 100 140 175 70 1006 315 20 10 143
2022009S18174 2022 3 SP MM CODY 2022-01-12 15:00:00 NR -24.7871 175.131 PROVISIONAL 781 778 P_____________ SP052022 -24.7871 175.131 51 987 0 100 133 132 77 1004 305 27 4 149
2022009S18174 2022 3 SP MM CODY 2022-01-12 18:00:00 NR -24.9000 175.200 PROVISIONAL 788 788 O_____________ tcvightals SP052022 -24.9000 175.200 51 985 0 100 126 90 85 1002 295 35 5 145
2022009S18174 2022 3 SP MM CODY 2022-01-12 21:00:00 NR -25.1879 175.439 PROVISIONAL 813 810 P_____________ SP052022 -25.1879 175.439 48 985 0 125 130 108 102 1002 295 52 9 142
2022009S18174 2022 3 SP MM CODY 2022-01-13 00:00:00 NR -25.6000 175.800 PROVISIONAL 844 O_____________ tcvightals SP052022 -25.6000 175.800 45 986 0 150 135 126 120 1002 295 70 11 142

デジタル台風データ・検索

IBTrACS Databaseについて

本データベースは、米国NOAAが公開する1842年以降の世界の熱帯低気圧のベストトラックデータアーカイブInternational Best Track Archive for Climate Stewardship (IBTrACS)を、ウェブで閲覧しやすい形式に変換したものです。

最終更新日:2022-01-14